^^
Station Historical Data
Daily Summary for May 7, 2019 Units:  English    Metric   Both
« Previous Day
Next Day »
Daily Weekly Monthly Yearly Custom
  High: Low: Average:
Temperature: 53.7 °F 30.2 °F 42.1 °F
Dew Point: 38.8 °F 28.4 °F 34.6 °F
Humidity: 95% 47% 77%
Wind Speed: 22mph 0mph 8.5mph
Wind Gust: 31mph - -
Wind- - SSE
Pressure: 30.20 in 30.07 in -
Precipitation: 0.02 in    
Historical Graphs
 
 
Tabular Data for May 7, 2019
Time Temperature Dew Point Pressure Wind Wind Speed Wind Gust Humidity Rainfall Rate (Hourly) solar Conditions
00:04 41.8 °F 33.4 °F 30.16 in SSE 10 mph 11 mph 72% 0 in 0.00 W/m2
00:09 41.5 °F 33.5 °F 30.16 in South 11 mph 11 mph 73% 0 in 0.00 W/m2
00:14 41.3 °F 33.3 °F 30.16 in South 7 mph 11 mph 73% 0 in 0.00 W/m2
00:19 41.1 °F 33.4 °F 30.16 in South 5 mph 11 mph 74% 0 in 0.00 W/m2
00:24 40.9 °F 33.6 °F 30.16 in South 5 mph 11 mph 75% 0 in 0.00 W/m2
00:29 40.7 °F 33.4 °F 30.16 in South 2 mph 10 mph 75% 0 in 0.00 W/m2
00:34 40.4 °F 33.4 °F 30.16 in SSW 4 mph 10 mph 76% 0 in 0.00 W/m2
00:39 40 °F 33 °F 30.16 in SW 5 mph 10 mph 76% 0 in 0.00 W/m2
00:44 39.6 °F 33 °F 30.16 in SW 6 mph 9 mph 77% 0 in 0.00 W/m2
00:49 39.3 °F 33 °F 30.16 in SSW 4 mph 10 mph 78% 0 in 0.00 W/m2
00:54 39 °F 32.7 °F 30.16 in SSW 4 mph 10 mph 78% 0 in 0.00 W/m2
00:59 38.7 °F 32.7 °F 30.16 in SSW 4 mph 10 mph 79% 0 in 0.00 W/m2
01:04 38.4 °F 32.5 °F 30.16 in South 5 mph 10 mph 79% 0 in 0.00 W/m2
01:09 37.9 °F 32.3 °F 30.16 in SSE 7 mph 8 mph 80% 0 in 0.00 W/m2
01:14 37.6 °F 32.3 °F 30.16 in SSE 2 mph 8 mph 81% 0 in 0.00 W/m2
01:19 37.4 °F 32.4 °F 30.16 in South 3 mph 6 mph 82% 0 in 0.00 W/m2
01:24 37.3 °F 32.3 °F 30.16 in South 3 mph 7 mph 82% 0 in 0.00 W/m2
01:29 37.1 °F 32.1 °F 30.16 in SSE 3 mph 7 mph 82% 0 in 0.00 W/m2
01:34 36.8 °F 32.1 °F 30.16 in SSE 1 mph 7 mph 83% 0 in 0.00 W/m2
01:39 36.8 °F 32.1 °F 30.16 in SSE 3 mph 6 mph 83% 0 in 0.00 W/m2
01:44 36.8 °F 32.4 °F 30.16 in SSW 4 mph 6 mph 84% 0 in 0.00 W/m2
01:49 36.8 °F 32.4 °F 30.16 in SW 2 mph 5 mph 84% 0 in 0.00 W/m2
01:54 36.7 °F 32.3 °F 30.16 in SW 2 mph 5 mph 84% 0 in 0.00 W/m2
01:59 36.5 °F 32.4 °F 30.16 in SW 4 mph 5 mph 85% 0 in 0.00 W/m2
02:04 36.4 °F 32.3 °F 30.16 in SSW 5 mph 6 mph 85% 0 in 0.00 W/m2
02:09 36.4 °F 32.6 °F 30.16 in SW 3 mph 6 mph 86% 0 in 0.00 W/m2
02:14 36.4 °F 32.6 °F 30.16 in SW 2 mph 6 mph 86% 0 in 0.00 W/m2
02:19 36.3 °F 32.5 °F 30.16 in Calm   6 mph 86% 0 in 0.00 W/m2
02:24 36.2 °F 32.4 °F 30.16 in SW 1 mph 6 mph 86% 0 in 0.00 W/m2
02:29 36 °F 32.2 °F 30.16 in SW 3 mph 6 mph 86% 0 in 0.00 W/m2
02:34 35.9 °F 33.8 °F 30.15 in SW 3 mph 4 mph 92% 0 in 0.00 W/m2
02:39 35.9 °F 32.4 °F 30.16 in SW 3 mph 4 mph 87% 0 in 0.00 W/m2
02:44 35.8 °F 32.3 °F 30.16 in SW 3 mph 4 mph 87% 0 in 0.00 W/m2
02:49 35.7 °F 32.2 °F 30.16 in SW 2 mph 4 mph 87% 0 in 0.00 W/m2
02:54 35.6 °F 32.1 °F 30.16 in SW 2 mph 4 mph 87% 0 in 0.00 W/m2
02:59 35.5 °F 32.3 °F 30.15 in Calm   4 mph 88% 0 in 0.00 W/m2
03:04 35.4 °F 32.2 °F 30.15 in Calm   2 mph 88% 0 in 0.00 W/m2
03:09 35.4 °F 32.2 °F 30.16 in Calm   1 mph 88% 0 in 0.00 W/m2
03:14 35.3 °F 32.1 °F 30.16 in ESE 2 mph 2 mph 88% 0 in 0.00 W/m2
03:19 34.8 °F 31.3 °F 30.16 in ENE 2 mph 4 mph 87% 0 in 0.00 W/m2
03:24 34.3 °F 31.1 °F 30.16 in ENE 2 mph 4 mph 88% 0 in 0.00 W/m2
03:29 34.2 °F 31 °F 30.17 in East 3 mph 4 mph 88% 0 in 0.00 W/m2
03:34 33.6 °F 30.4 °F 30.17 in East 4 mph 6 mph 88% 0 in 0.00 W/m2
03:39 33.9 °F 31.3 °F 30.17 in East 3 mph 6 mph 90% 0 in 0.00 W/m2
03:44 33.8 °F 30.9 °F 30.18 in East 4 mph 6 mph 89% 0 in 0.00 W/m2
03:49 33.7 °F 30.8 °F 30.18 in ESE 4 mph 7 mph 89% 0 in 0.00 W/m2
03:54 33.4 °F 30.5 °F 30.18 in SE 5 mph 7 mph 89% 0 in 0.00 W/m2
03:59 32.9 °F 30 °F 30.18 in SE 5 mph 8 mph 89% 0 in 0.00 W/m2
04:04 32.2 °F 29.3 °F 30.18 in SE 7 mph 8 mph 89% 0 in 0.00 W/m2
04:09 31.6 °F 28.7 °F 30.18 in SE 7 mph 8 mph 89% 0 in 0.00 W/m2
04:14 31.4 °F 28.8 °F 30.18 in SE 7 mph 8 mph 90% 0 in 0.00 W/m2
04:19 31.5 °F 29.2 °F 30.18 in SE 7 mph 8 mph 91% 0 in 0.00 W/m2
04:24 31.5 °F 29.2 °F 30.18 in SE 7 mph 8 mph 91% 0 in 0.00 W/m2
04:29 31.4 °F 29.1 °F 30.18 in SE 7 mph 8 mph 91% 0 in 0.00 W/m2
04:34 31.5 °F 29.4 °F 30.18 in SE 7 mph 8 mph 92% 0 in 0.00 W/m2
04:39 31.6 °F 29.5 °F 30.18 in SE 7 mph 8 mph 92% 0 in 0.00 W/m2
04:44 31.7 °F 29.6 °F 30.18 in ESE 3 mph 7 mph 92% 0 in 0.00 W/m2
04:49 31.7 °F 29.6 °F 30.18 in SE 5 mph 7 mph 92% 0 in 0.00 W/m2
04:54 31.7 °F 29.6 °F 30.18 in ESE 7 mph 7 mph 92% 0 in 0.00 W/m2
04:59 31.9 °F 29.8 °F 30.18 in SE 4 mph 8 mph 92% 0 in 0.00 W/m2
05:04 32 °F 30.2 °F 30.18 in ESE 6 mph 8 mph 93% 0 in 0.00 W/m2
05:09 31.9 °F 29.8 °F 30.18 in SE 4 mph 8 mph 92% 0 in 0.00 W/m2
05:14 31.8 °F 30 °F 30.19 in SE 8 mph 10 mph 93% 0 in 0.00 W/m2
05:19 31.6 °F 29.5 °F 30.18 in SE 4 mph 10 mph 92% 0 in 0.00 W/m2
05:24 31.5 °F 29.7 °F 30.18 in SE 5 mph 10 mph 93% 0 in 0.00 W/m2
05:29 31.2 °F 29.4 °F 30.18 in SE 5 mph 10 mph 93% 0 in 0.00 W/m2
05:34 31.2 °F 29.4 °F 30.18 in SE 7 mph 9 mph 93% 0 in 0.00 W/m2
05:39 31.2 °F 29.4 °F 30.18 in SE 5 mph 9 mph 93% 0 in 0.00 W/m2
05:44 31.2 °F 29.4 °F 30.18 in SE 8 mph 9 mph 93% 0 in 0.00 W/m2
05:49 31.2 °F 29.4 °F 30.18 in ESE 7 mph 8 mph 93% 0 in 0.00 W/m2
05:54 31.2 °F 29.4 °F 30.18 in SE 5 mph 8 mph 93% 0 in 0.00 W/m2
05:59 31 °F 29.2 °F 30.18 in SE 5 mph 8 mph 93% 0 in 0.00 W/m2
06:04 30.8 °F 29 °F 30.18 in SE 4 mph 8 mph 93% 0 in 0.00 W/m2
06:09 30.8 °F 29 °F 30.18 in ESE 4 mph 8 mph 93% 0 in 0.00 W/m2
06:14 30.8 °F 29 °F 30.18 in ESE 4 mph 8 mph 93% 0 in 0.00 W/m2
06:19 30.8 °F 29.3 °F 30.18 in ESE 3 mph 8 mph 94% 0 in 5.00 W/m2
06:24 30.3 °F 28.5 °F 30.18 in East 6 mph 6 mph 93% 0 in 7.00 W/m2
06:29 30.2 °F 28.4 °F 30.18 in SE 4 mph 6 mph 93% 0 in 11.00 W/m2
06:34 30.2 °F 28.7 °F 30.19 in SE 5 mph 7 mph 94% 0 in 12.00 W/m2
06:39 30.3 °F 28.8 °F 30.19 in SE 4 mph 7 mph 94% 0 in 16.00 W/m2
06:44 30.3 °F 28.8 °F 30.19 in SE 5 mph 7 mph 94% 0 in 18.00 W/m2
06:49 30.5 °F 29 °F 30.19 in SE 4 mph 7 mph 94% 0 in 21.00 W/m2
06:54 30.6 °F 29.1 °F 30.19 in SE 3 mph 7 mph 94% 0 in 23.00 W/m2
06:59 30.9 °F 29.4 °F 30.19 in ESE 4 mph 6 mph 94% 0 in 26.00 W/m2
07:04 31.1 °F 29.6 °F 30.19 in ESE 4 mph 6 mph 94% 0 in 28.00 W/m2
07:09 31.2 °F 29.7 °F 30.19 in ESE 2 mph 6 mph 94% 0 in 30.00 W/m2
07:14 31.5 °F 30 °F 30.19 in ESE 5 mph 6 mph 94% 0 in 32.00 W/m2
07:19 31.7 °F 30.2 °F 30.19 in ESE 4 mph 7 mph 94% 0 in 33.00 W/m2
07:24 32 °F 30.5 °F 30.19 in ESE 3 mph 7 mph 94% 0 in 35.00 W/m2
07:29 32.3 °F 30.8 °F 30.19 in ESE 3 mph 7 mph 94% 0 in 37.00 W/m2
07:34 32.6 °F 31.3 °F 30.19 in ESE 3 mph 7 mph 95% 0 in 39.00 W/m2
07:39 33 °F 31.7 °F 30.19 in ESE 3 mph 6 mph 95% 0 in 40.00 W/m2
07:44 33.4 °F 32.1 °F 30.20 in SE 4 mph 6 mph 95% 0 in 42.00 W/m2
07:49 33.8 °F 32.5 °F 30.19 in ESE 6 mph 7 mph 95% 0 in 127.00 W/m2
07:54 34.1 °F 32.8 °F 30.19 in ESE 4 mph 7 mph 95% 0 in 185.00 W/m2
07:59 34.7 °F 33.4 °F 30.19 in ESE 3 mph 7 mph 95% 0 in 197.00 W/m2
08:04 35.3 °F 34 °F 30.20 in SE 5 mph 7 mph 95% 0 in 211.00 W/m2
08:09 35.7 °F 34.4 °F 30.19 in ESE 4 mph 7 mph 95% 0 in 225.00 W/m2
08:14 36.3 °F 35 °F 30.19 in SE 3 mph 7 mph 95% 0 in 221.00 W/m2
08:19 36.8 °F 35.5 °F 30.19 in SSE 2 mph 7 mph 95% 0 in 209.00 W/m2
08:24 37.3 °F 36 °F 30.19 in SE 5 mph 7 mph 95% 0 in 236.00 W/m2
08:29 37.8 °F 36.2 °F 30.19 in SE 5 mph 8 mph 94% 0 in 278.00 W/m2
08:34 38.2 °F 36.6 °F 30.19 in SSE 4 mph 8 mph 94% 0 in 295.00 W/m2
08:39 38.7 °F 37.1 °F 30.19 in SE 5 mph 8 mph 94% 0 in 309.00 W/m2
08:44 39.1 °F 37.2 °F 30.19 in SE 8 mph 10 mph 93% 0 in 327.00 W/m2
08:49 39.5 °F 37.4 °F 30.19 in SSE 5 mph 10 mph 92% 0 in 343.00 W/m2
08:54 39.8 °F 37.4 °F 30.19 in SSE 6 mph 11 mph 91% 0 in 357.00 W/m2
08:59 40.1 °F 37.4 °F 30.19 in South 7 mph 12 mph 90% 0 in 374.00 W/m2
09:04 40.4 °F 37.4 °F 30.19 in SSE 6 mph 12 mph 89% 0 in 404.00 W/m2
09:09 40.6 °F 37.3 °F 30.19 in SE 9 mph 13 mph 88% 0 in 316.00 W/m2
09:14 41.3 °F 38 °F 30.19 in SE 8 mph 13 mph 88% 0 in 431.00 W/m2
09:19 41.5 °F 37.9 °F 30.19 in SE 10 mph 13 mph 87% 0 in 450.00 W/m2
09:24 41.4 °F 37.5 °F 30.20 in ESE 9 mph 13 mph 86% 0 in 522.00 W/m2
09:29 41.6 °F 37.7 °F 30.19 in SE 9 mph 13 mph 86% 0 in 520.00 W/m2
09:34 41.7 °F 37.8 °F 30.20 in SE 10 mph 13 mph 86% 0 in 381.00 W/m2
09:39 41.1 °F 36.9 °F 30.20 in SSE 11 mph 13 mph 85% 0 in 223.00 W/m2
09:44 41.2 °F 37.6 °F 30.20 in SE 13 mph 15 mph 87% 0 in 244.00 W/m2
09:49 41.9 °F 38.3 °F 30.19 in SE 9 mph 17 mph 87% 0 in 589.00 W/m2
09:54 42.7 °F 38.2 °F 30.20 in SSE 19 mph 19 mph 84% 0 in 580.00 W/m2
09:59 42.8 °F 38 °F 30.19 in SSE 11 mph 19 mph 83% 0 in 589.00 W/m2
10:04 43.4 °F 38.3 °F 30.19 in SSE 10 mph 18 mph 82% 0 in 596.00 W/m2
10:09 43.8 °F 38.3 °F 30.19 in SE 13 mph 19 mph 81% 0 in 612.00 W/m2
10:14 44 °F 38.2 °F 30.19 in SSE 12 mph 19 mph 80% 0 in 635.00 W/m2
10:19 44.1 °F 37.3 °F 30.19 in SE 10 mph 20 mph 77% 0 in 633.00 W/m2
10:24 44.3 °F 37.5 °F 30.19 in South 13 mph 20 mph 77% 0 in 649.00 W/m2
10:29 44.6 °F 37.8 °F 30.19 in SE 11 mph 20 mph 77% 0 in 656.00 W/m2
10:34 44.9 °F 37.8 °F 30.19 in SSE 13 mph 21 mph 76% 0 in 687.00 W/m2
10:39 45.2 °F 38.1 °F 30.19 in SSE 13 mph 21 mph 76% 0 in 714.00 W/m2
10:44 44.7 °F 36.6 °F 30.19 in SSE 15 mph 21 mph 73% 0 in 714.00 W/m2
10:49 45.2 °F 37.7 °F 30.19 in SSE 15 mph 21 mph 75% 0 in 735.00 W/m2
10:54 46 °F 37.8 °F 30.19 in SE 10 mph 18 mph 73% 0 in 738.00 W/m2
10:59 46.5 °F 36.9 °F 30.19 in South 16 mph 20 mph 69% 0 in 715.00 W/m2
11:04 46.5 °F 36.9 °F 30.19 in SSE 8 mph 20 mph 69% 0 in 710.00 W/m2
11:09 46.6 °F 37.3 °F 30.19 in SSE 15 mph 20 mph 70% 0 in 691.00 W/m2
11:14 47.2 °F 37.2 °F 30.19 in SSE 17 mph 20 mph 68% 0 in 650.00 W/m2
11:19 47 °F 36.6 °F 30.19 in SE 14 mph 19 mph 67% 0 in 626.00 W/m2
11:24 46.9 °F 36.1 °F 30.18 in SSE 14 mph 22 mph 66% 0 in 633.00 W/m2
11:29 47.5 °F 36.7 °F 30.19 in SSE 10 mph 22 mph 66% 0 in 666.00 W/m2
11:34 47.6 °F 36.4 °F 30.18 in South 10 mph 22 mph 65% 0 in 541.00 W/m2
11:39 47.7 °F 36.1 °F 30.18 in SSE 16 mph 22 mph 64% 0 in 752.00 W/m2
11:44 48 °F 37.2 °F 30.18 in SE 13 mph 23 mph 66% 0 in 819.00 W/m2
11:49 48.4 °F 36.8 °F 30.18 in South 17 mph 23 mph 64% 0 in 853.00 W/m2
11:54 48.3 °F 37.1 °F 30.17 in SSE 14 mph 23 mph 65% 0 in 798.00 W/m2
11:59 48.6 °F 37.4 °F 30.18 in South 19 mph 23 mph 65% 0 in 812.00 W/m2
12:04 48.7 °F 36.7 °F 30.17 in SSE 16 mph 21 mph 63% 0 in 731.00 W/m2
12:09 48.5 °F 36.5 °F 30.17 in SSE 8 mph 24 mph 63% 0 in 768.00 W/m2
12:14 48.6 °F 37 °F 30.17 in SE 12 mph 24 mph 64% 0 in 661.00 W/m2
12:19 48.8 °F 37.2 °F 30.16 in SE 19 mph 21 mph 64% 0 in 803.00 W/m2
12:24 49.1 °F 37.4 °F 30.16 in South 15 mph 21 mph 64% 0 in 874.00 W/m2
12:29 49.8 °F 37.3 °F 30.16 in SSE 14 mph 21 mph 62% 0 in 911.00 W/m2
12:34 50.4 °F 37 °F 30.16 in SSE 13 mph 20 mph 60% 0 in 940.00 W/m2
12:39 50.6 °F 37.6 °F 30.16 in SE 13 mph 20 mph 61% 0 in 835.00 W/m2
12:44 50.8 °F 37.8 °F 30.15 in SSE 12 mph 20 mph 61% 0 in 1062.00 W/m2
12:49 51.2 °F 37.8 °F 30.15 in ESE 12 mph 20 mph 60% 0 in 1032.00 W/m2
12:54 51.6 °F 36.4 °F 30.14 in SE 17 mph 20 mph 56% 0 in 473.00 W/m2
12:59 51.5 °F 35.9 °F 30.14 in SSE 22 mph 26 mph 55% 0 in 1139.00 W/m2
13:04 52.4 °F 35.3 °F 30.14 in SSE 17 mph 29 mph 52% 0 in 1162.00 W/m2
13:09 52.4 °F 34.8 °F 30.14 in SSE 12 mph 29 mph 51% 0 in 492.00 W/m2
13:14 51.9 °F 34.3 °F 30.14 in SE 17 mph 27 mph 51% 0 in 594.00 W/m2
13:19 52.3 °F 35.2 °F 30.14 in South 19 mph 27 mph 52% 0 in 1187.00 W/m2
13:24 52.6 °F 34 °F 30.14 in SSE 14 mph 24 mph 49% 0 in 733.00 W/m2
13:29 52.4 °F 35.3 °F 30.13 in South 17 mph 24 mph 52% 0 in 837.00 W/m2
13:34 53.3 °F 33.6 °F 30.13 in South 14 mph 24 mph 47% 0 in 707.00 W/m2
13:39 53.3 °F 34.1 °F 30.13 in SE 17 mph 24 mph 48% 0 in 737.00 W/m2
13:44 53.7 °F 35.5 °F 30.13 in South 21 mph 31 mph 50% 0 in 737.00 W/m2
13:49 52.9 °F 34.2 °F 30.13 in South 12 mph 31 mph 49% 0 in 657.00 W/m2
13:54 52.3 °F 35.2 °F 30.13 in SSE 22 mph 29 mph 52% 0 in 506.00 W/m2
13:59 51.9 °F 35.3 °F 30.12 in SSE 18 mph 29 mph 53% 0 in 420.00 W/m2
14:04 52.4 °F 35.3 °F 30.13 in SSW 9 mph 25 mph 52% 0 in 555.00 W/m2
14:09 52.8 °F 35.6 °F 30.13 in South 16 mph 25 mph 52% 0 in 622.00 W/m2
14:14 52.7 °F 35.6 °F 30.12 in South 16 mph 24 mph 52% 0 in 436.00 W/m2
14:19 51.7 °F 35.6 °F 30.12 in South 12 mph 24 mph 54% 0 in 473.00 W/m2
14:24 52.8 °F 38.4 °F 30.12 in South 8 mph 20 mph 58% 0 in 522.00 W/m2
14:29 53.1 °F 36.9 °F 30.12 in South 13 mph 22 mph 54% 0 in 527.00 W/m2
14:34 52.4 °F 35.8 °F 30.12 in South 9 mph 23 mph 53% 0 in 552.00 W/m2
14:39 52.2 °F 36 °F 30.12 in SSE 17 mph 25 mph 54% 0 in 476.00 W/m2
14:44 51.9 °F 36.7 °F 30.12 in South 7 mph 25 mph 56% 0 in 376.00 W/m2
14:49 51.9 °F 35.8 °F 30.12 in SSE 10 mph 22 mph 54% 0 in 483.00 W/m2
14:54 52.2 °F 36 °F 30.12 in South 14 mph 22 mph 54% 0 in 450.00 W/m2
14:59 52 °F 35.9 °F 30.12 in SE 16 mph 20 mph 54% 0 in 520.00 W/m2
15:04 52.4 °F 34.3 °F 30.12 in South 17 mph 24 mph 50% 0 in 464.00 W/m2
15:09 51.8 °F 33.2 °F 30.11 in SE 13 mph 24 mph 49% 0 in 461.00 W/m2
15:14 51.9 °F 33.3 °F 30.11 in SSE 14 mph 23 mph 49% 0 in 564.00 W/m2
15:19 52.3 °F 33.2 °F 30.11 in SSE 13 mph 23 mph 48% 0 in 696.00 W/m2
15:24 53.2 °F 34 °F 30.11 in SSE 16 mph 22 mph 48% 0 in 629.00 W/m2
15:29 53.3 °F 34.1 °F 30.10 in SSE 20 mph 23 mph 48% 0 in 534.00 W/m2
15:34 52.8 °F 33.6 °F 30.10 in South 13 mph 23 mph 48% 0 in 520.00 W/m2
15:39 52.7 °F 33.5 °F 30.10 in SE 12 mph 22 mph 48% 0 in 427.00 W/m2
15:44 52.2 °F 34.1 °F 30.10 in South 10 mph 22 mph 50% 0 in 403.00 W/m2
15:49 52.2 °F 34.6 °F 30.10 in SSE 8 mph 20 mph 51% 0 in 359.00 W/m2
15:54 51.9 °F 33.8 °F 30.10 in SE 7 mph 22 mph 50% 0 in 394.00 W/m2
15:59 51.6 °F 33.6 °F 30.09 in SE 12 mph 22 mph 50% 0 in 362.00 W/m2
16:04 51.8 °F 34.7 °F 30.09 in South 12 mph 20 mph 52% 0 in 341.00 W/m2
16:09 51.7 °F 34.6 °F 30.09 in South 12 mph 20 mph 52% 0 in 359.00 W/m2
16:14 51.8 °F 33.7 °F 30.09 in SSE 12 mph 21 mph 50% 0 in 403.00 W/m2
16:19 52.1 °F 33.5 °F 30.09 in SSE 15 mph 21 mph 49% 0 in 422.00 W/m2
16:24 52.1 °F 34 °F 30.09 in SSE 14 mph 19 mph 50% 0 in 431.00 W/m2
16:29 52.3 °F 33.7 °F 30.09 in South 17 mph 19 mph 49% 0 in 446.00 W/m2
16:34 52.8 °F 34.2 °F 30.09 in SSE 12 mph 18 mph 49% 0 in 422.00 W/m2
16:39 53.3 °F 35.1 °F 30.09 in South 14 mph 18 mph 50% 0 in 406.00 W/m2
16:44 53 °F 33.3 °F 30.09 in South 17 mph 18 mph 47% 0 in 374.00 W/m2
16:49 52.3 °F 33.2 °F 30.09 in South 8 mph 24 mph 48% 0 in 369.00 W/m2
16:54 51.8 °F 32.7 °F 30.08 in SSW 14 mph 24 mph 48% 0 in 311.00 W/m2
16:59 51.5 °F 33.5 °F 30.09 in South 14 mph 21 mph 50% 0 in 285.00 W/m2
17:04 51.2 °F 32.7 °F 30.09 in South 11 mph 21 mph 49% 0 in 269.00 W/m2
17:09 51.1 °F 33.1 °F 30.08 in SSE 16 mph 20 mph 50% 0 in 269.00 W/m2
17:14 50.9 °F 33.4 °F 30.08 in SSW 12 mph 20 mph 51% 0 in 274.00 W/m2
17:19 50.5 °F 33 °F 30.08 in South 21 mph 22 mph 51% 0 in 248.00 W/m2
17:24 50.1 °F 32.2 °F 30.08 in SSE 19 mph 24 mph 50% 0 in 229.00 W/m2
17:29 49.8 °F 32.9 °F 30.08 in South 13 mph 24 mph 52% 0 in 220.00 W/m2
17:34 49.6 °F 32.7 °F 30.08 in South 11 mph 21 mph 52% 0 in 207.00 W/m2
17:39 49.6 °F 32.7 °F 30.07 in South 9 mph 21 mph 52% 0 in 195.00 W/m2
17:44 49.2 °F 32.3 °F 30.07 in SSE 19 mph 21 mph 52% 0 in 171.00 W/m2
17:49 49 °F 32.6 °F 30.07 in SSW 17 mph 23 mph 53% 0 in 151.00 W/m2
17:54 48.6 °F 32.7 °F 30.08 in South 10 mph 23 mph 54% 0 in 153.00 W/m2
17:59 48.5 °F 32.6 °F 30.07 in SSE 15 mph 23 mph 54% 0 in 162.00 W/m2
18:04 48.5 °F 33.5 °F 30.08 in SSE 13 mph 21 mph 56% 0 in 155.00 W/m2
18:09 48.2 °F 33.2 °F 30.08 in South 14 mph 21 mph 56% 0 in 139.00 W/m2
18:14 47.8 °F 33.7 °F 30.08 in South 13 mph 19 mph 58% 0 in 132.00 W/m2
18:19 47.4 °F 33.8 °F 30.08 in SSE 14 mph 21 mph 59% 0 in 120.00 W/m2
18:24 47 °F 34.6 °F 30.08 in South 15 mph 21 mph 62% 0 in 114.00 W/m2
18:29 46.5 °F 35 °F 30.08 in South 16 mph 20 mph 64% 0 in 113.00 W/m2
18:34 46 °F 35.3 °F 30.08 in SSE 13 mph 21 mph 66% 0 in 116.00 W/m2
18:39 46 °F 35.7 °F 30.08 in SSE 9 mph 21 mph 67% 0 in 114.00 W/m2
18:44 45.9 °F 35.6 °F 30.08 in SE 13 mph 20 mph 67% 0 in 102.00 W/m2
18:49 45.8 °F 35.8 °F 30.08 in SSE 9 mph 20 mph 68% 0 in 91.00 W/m2
18:54 45.6 °F 35.6 °F 30.08 in South 9 mph 20 mph 68% 0 in 83.00 W/m2
18:59 45.3 °F 36.1 °F 30.08 in SSE 10 mph 20 mph 70% 0 in 76.00 W/m2
19:04 45.1 °F 35.9 °F 30.08 in SSE 11 mph 17 mph 70% 0 in 72.00 W/m2
19:09 44.9 °F 36.4 °F 30.08 in SSE 10 mph 17 mph 72% 0 in 69.00 W/m2
19:14 44.5 °F 36.4 °F 30.08 in SSE 10 mph 17 mph 73% 0 in 65.00 W/m2
19:19 44.1 °F 36.3 °F 30.08 in SE 10 mph 17 mph 74% 0 in 63.00 W/m2
19:24 43.8 °F 36.4 °F 30.08 in SE 10 mph 17 mph 75% 0 in 54.00 W/m2
19:29 43.6 °F 36.5 °F 30.08 in South 6 mph 17 mph 76% 0 in 54.00 W/m2
19:34 43.5 °F 36.8 °F 30.08 in SSE 8 mph 16 mph 77% 0 in 51.00 W/m2
19:39 43.4 °F 36.7 °F 30.08 in SE 11 mph 17 mph 77% 0 in 47.00 W/m2
19:44 43.3 °F 36.9 °F 30.08 in SSE 10 mph 19 mph 78% 0 in 53.00 W/m2
19:49 43.3 °F 37.2 °F 30.09 in SSE 14 mph 19 mph 79% 0 in 62.00 W/m2
19:54 43.3 °F 37.2 °F 30.09 in SSE 8 mph 18 mph 79% 0 in 54.00 W/m2
19:59 43.3 °F 37.2 °F 30.09 in SSE 8 mph 18 mph 79% 0 in 47.00 W/m2
20:04 43.3 °F 37.5 °F 30.09 in SSE 7 mph 17 mph 80% 0 in 44.00 W/m2
20:09 43.3 °F 37.5 °F 30.09 in SSE 9 mph 17 mph 80% 0 in 33.00 W/m2
20:14 43 °F 37.6 °F 30.09 in SSE 11 mph 19 mph 81% 0 in 23.00 W/m2
20:19 42.8 °F 37.7 °F 30.10 in SSE 9 mph 19 mph 82% 0 in 21.00 W/m2
20:24 42.6 °F 37.8 °F 30.10 in South 10 mph 15 mph 83% 0 in 19.00 W/m2
20:29 42.4 °F 37.9 °F 30.10 in South 10 mph 15 mph 84% 0 in 14.00 W/m2
20:34 42.2 °F 38.3 °F 30.10 in South 11 mph 15 mph 86% 0 in 11.00 W/m2
20:39 42 °F 38.1 °F 30.10 in South 9 mph 15 mph 86% 0 in 5.00 W/m2
20:44 41.9 °F 38.3 °F 30.10 in SSE 9 mph 19 mph 87% 0 in 0.00 W/m2
20:49 41.8 °F 38.5 °F 30.10 in SSE 10 mph 19 mph 88% 0 in 0.00 W/m2
20:54 41.7 °F 38.4 °F 30.10 in South 11 mph 14 mph 88% 0 in 0.00 W/m2
20:59 41.6 °F 38.6 °F 30.10 in SSE 7 mph 14 mph 89% 0 in 0.00 W/m2
21:04 41.6 °F 38.6 °F 30.11 in SSE 9 mph 13 mph 89% 0 in 0.00 W/m2
21:09 41.5 °F 38.8 °F 30.11 in South 6 mph 13 mph 90% 0 in 0.00 W/m2
21:14 41.5 °F 38.8 °F 30.11 in SSE 9 mph 13 mph 90% 0 in 0.00 W/m2
21:19 41.3 °F 38.6 °F 30.11 in SSE 6 mph 12 mph 90% 0 in 0.00 W/m2
21:24 41.2 °F 38.5 °F 30.11 in South 6 mph 12 mph 90% 0 in 0.00 W/m2
21:29 41.1 °F 38.4 °F 30.11 in South 5 mph 11 mph 90% 0 in 0.00 W/m2
21:34 41 °F 38.6 °F 30.12 in South 5 mph 11 mph 91% 0 in 0.00 W/m2
21:39 40.9 °F 38.5 °F 30.12 in South 6 mph 9 mph 91% 0 in 0.00 W/m2
21:44 40.8 °F 38.4 °F 30.12 in SSW 3 mph 8 mph 91% 0 in 0.00 W/m2
21:49 40.8 °F 38.4 °F 30.12 in SSW 3 mph 8 mph 91% 0 in 0.00 W/m2
21:54 40.7 °F 38.3 °F 30.12 in South 3 mph 6 mph 91% 0 in 0.00 W/m2
21:59 40.6 °F 38.2 °F 30.12 in South 1 mph 6 mph 91% 0 in 0.00 W/m2
22:04 40.6 °F 38.5 °F 30.12 in SSE 2 mph 4 mph 92% 0 in 0.00 W/m2
22:09 40.6 °F 38.5 °F 30.12 in SSE 1 mph 4 mph 92% 0 in 0.00 W/m2
22:14 40.6 °F 38.5 °F 30.12 in SSE 1 mph 4 mph 92% 0 in 0.00 W/m2
22:19 40.7 °F 38.6 °F 30.12 in SSE 5 mph 5 mph 92% 0 in 0.00 W/m2
22:24 40.7 °F 38.6 °F 30.12 in SSE 2 mph 6 mph 92% 0 in 0.00 W/m2
22:29 40.7 °F 38.6 °F 30.12 in South 3 mph 7 mph 92% 0 in 0.00 W/m2
22:34 40.6 °F 38.5 °F 30.12 in SSE 3 mph 7 mph 92% 0 in 0.00 W/m2
22:39 40.6 °F 38.5 °F 30.12 in SSE 2 mph 6 mph 92% 0 in 0.00 W/m2
22:44 40.6 °F 38.5 °F 30.12 in SE 2 mph 6 mph 92% 0 in 0.00 W/m2
22:49 40.6 °F 38.5 °F 30.12 in SE 3 mph 6 mph 92% 0 in 0.00 W/m2
22:54 40.6 °F 38.7 °F 30.12 in SE 3 mph 6 mph 93% 0.01 in 0.00 W/m2
22:59 40.6 °F 38.7 °F 30.12 in SE 5 mph 6 mph 93% 0.01 in 0.00 W/m2
23:04 40.6 °F 38.7 °F 30.12 in SE 2 mph 5 mph 93% 0.01 in 0.00 W/m2
23:09 40.6 °F 38.7 °F 30.12 in ESE 3 mph 5 mph 93% 0.01 in 0.00 W/m2
23:14 40.6 °F 38.7 °F 30.12 in SE 5 mph 5 mph 93% 0.01 in 0.00 W/m2
23:19 40.6 °F 38.7 °F 30.12 in SE 3 mph 7 mph 93% 0.01 in 0.00 W/m2
23:24 40.6 °F 38.7 °F 30.12 in SE 4 mph 7 mph 93% 0.01 in 0.00 W/m2
23:29 40.6 °F 38.7 °F 30.12 in SE 4 mph 7 mph 93% 0.01 in 0.00 W/m2
23:34 40.6 °F 38.7 °F 30.12 in SE 7 mph 7 mph 93% 0.01 in 0.00 W/m2
23:39 40.5 °F 38.6 °F 30.12 in SE 4 mph 8 mph 93% 0.01 in 0.00 W/m2
23:44 40.5 °F 38.6 °F 30.11 in SE 7 mph 9 mph 93% 0.01 in 0.00 W/m2
23:49 40.3 °F 38.4 °F 30.11 in SE 10 mph 11 mph 93% 0.01 in 0.00 W/m2
23:54 40.1 °F 38.2 °F 30.11 in SE 8 mph 11 mph 93% 0 in 0.00 W/m2
23:59 40.1 °F 38.2 °F 30.10 in SE 5 mph 11 mph 93% 0 in 0.00 W/m2
Bismarck, North Dakota, USA
Compliments of Weather Underground - 4 mb